sensor_id;sensor_type;location;lat;lon;timestamp;P1;durP1;ratioP1;P2;durP2;ratioP2
11827;SDS011;5971;49.646;8.568;2023-03-23T00:02:25;3.15;;;1.65;;
11827;SDS011;5971;49.646;8.568;2023-03-23T00:05:25;4.03;;;1.67;;
11827;SDS011;5971;49.646;8.568;2023-03-23T00:08:26;2.87;;;1.63;;
11827;SDS011;5971;49.646;8.568;2023-03-23T00:11:27;3.77;;;2.10;;
11827;SDS011;5971;49.646;8.568;2023-03-23T00:14:29;3.15;;;1.48;;
11827;SDS011;5971;49.646;8.568;2023-03-23T00:17:40;3.38;;;1.42;;
11827;SDS011;5971;49.646;8.568;2023-03-23T00:20:41;2.70;;;1.52;;
11827;SDS011;5971;49.646;8.568;2023-03-23T00:23:41;2.80;;;1.35;;
11827;SDS011;5971;49.646;8.568;2023-03-23T00:26:45;2.15;;;1.10;;
11827;SDS011;5971;49.646;8.568;2023-03-23T00:29:46;2.67;;;1.55;;
11827;SDS011;5971;49.646;8.568;2023-03-23T00:32:46;3.13;;;1.60;;
11827;SDS011;5971;49.646;8.568;2023-03-23T00:35:46;3.58;;;1.60;;
11827;SDS011;5971;49.646;8.568;2023-03-23T00:38:46;3.47;;;2.20;;
11827;SDS011;5971;49.646;8.568;2023-03-23T00:41:47;2.63;;;1.53;;
11827;SDS011;5971;49.646;8.568;2023-03-23T00:44:47;2.83;;;1.50;;
11827;SDS011;5971;49.646;8.568;2023-03-23T00:47:48;2.50;;;1.30;;
11827;SDS011;5971;49.646;8.568;2023-03-23T00:50:51;3.40;;;1.77;;
11827;SDS011;5971;49.646;8.568;2023-03-23T00:53:52;3.15;;;1.52;;
11827;SDS011;5971;49.646;8.568;2023-03-23T00:56:52;2.20;;;1.30;;
11827;SDS011;5971;49.646;8.568;2023-03-23T00:59:52;2.63;;;1.25;;
11827;SDS011;5971;49.646;8.568;2023-03-23T01:02:53;4.13;;;2.10;;
11827;SDS011;5971;49.646;8.568;2023-03-23T01:05:54;3.05;;;1.60;;
11827;SDS011;5971;49.646;8.568;2023-03-23T01:08:54;2.00;;;1.30;;
11827;SDS011;5971;49.646;8.568;2023-03-23T01:11:56;3.90;;;1.50;;
11827;SDS011;5971;49.646;8.568;2023-03-23T01:14:56;2.90;;;2.30;;
11827;SDS011;5971;49.646;8.568;2023-03-23T01:17:57;3.28;;;1.65;;
11827;SDS011;5971;49.646;8.568;2023-03-23T01:20:57;4.45;;;1.58;;
11827;SDS011;5971;49.646;8.568;2023-03-23T01:23:57;3.73;;;1.70;;
11827;SDS011;5971;49.646;8.568;2023-03-23T01:26:58;2.38;;;1.42;;
11827;SDS011;5971;49.646;8.568;2023-03-23T01:30:02;3.05;;;1.52;;
11827;SDS011;5971;49.646;8.568;2023-03-23T01:33:02;2.85;;;1.33;;
11827;SDS011;5971;49.646;8.568;2023-03-23T01:36:03;2.38;;;1.17;;
11827;SDS011;5971;49.646;8.568;2023-03-23T01:39:05;3.38;;;1.35;;
11827;SDS011;5971;49.646;8.568;2023-03-23T01:42:07;2.15;;;1.23;;
11827;SDS011;5971;49.646;8.568;2023-03-23T01:48:21;3.17;;;2.15;;
11827;SDS011;5971;49.646;8.568;2023-03-23T01:51:22;2.72;;;1.45;;
11827;SDS011;5971;49.646;8.568;2023-03-23T01:54:22;2.95;;;1.45;;
11827;SDS011;5971;49.646;8.568;2023-03-23T01:57:23;2.33;;;1.40;;
11827;SDS011;5971;49.646;8.568;2023-03-23T02:00:26;3.10;;;1.27;;
11827;SDS011;5971;49.646;8.568;2023-03-23T02:03:27;2.38;;;1.52;;
11827;SDS011;5971;49.646;8.568;2023-03-23T02:06:28;3.92;;;2.10;;
11827;SDS011;5971;49.646;8.568;2023-03-23T02:09:29;2.92;;;1.52;;
11827;SDS011;5971;49.646;8.568;2023-03-23T02:12:30;2.55;;;1.23;;
11827;SDS011;5971;49.646;8.568;2023-03-23T02:18:52;2.53;;;2.08;;
11827;SDS011;5971;49.646;8.568;2023-03-23T02:31:21;2.40;;;1.33;;
11827;SDS011;5971;49.646;8.568;2023-03-23T02:34:29;2.58;;;1.90;;
11827;SDS011;5971;49.646;8.568;2023-03-23T02:37:33;2.13;;;1.20;;
11827;SDS011;5971;49.646;8.568;2023-03-23T02:40:38;2.20;;;1.13;;
11827;SDS011;5971;49.646;8.568;2023-03-23T02:43:40;3.17;;;1.52;;
11827;SDS011;5971;49.646;8.568;2023-03-23T02:46:42;2.33;;;1.55;;
11827;SDS011;5971;49.646;8.568;2023-03-23T02:49:44;2.65;;;1.15;;
11827;SDS011;5971;49.646;8.568;2023-03-23T02:52:45;4.97;;;1.45;;
11827;SDS011;5971;49.646;8.568;2023-03-23T02:55:46;2.08;;;1.60;;
11827;SDS011;5971;49.646;8.568;2023-03-23T02:58:48;2.65;;;1.77;;
11827;SDS011;5971;49.646;8.568;2023-03-23T03:01:50;3.15;;;1.35;;
11827;SDS011;5971;49.646;8.568;2023-03-23T03:04:53;3.13;;;1.80;;
11827;SDS011;5971;49.646;8.568;2023-03-23T03:11:18;2.38;;;1.30;;
11827;SDS011;5971;49.646;8.568;2023-03-23T03:14:23;2.33;;;1.85;;
11827;SDS011;5971;49.646;8.568;2023-03-23T03:17:26;2.95;;;1.52;;
11827;SDS011;5971;49.646;8.568;2023-03-23T03:20:26;1.90;;;1.00;;
11827;SDS011;5971;49.646;8.568;2023-03-23T03:23:29;3.53;;;1.45;;
11827;SDS011;5971;49.646;8.568;2023-03-23T03:26:32;1.75;;;1.05;;
11827;SDS011;5971;49.646;8.568;2023-03-23T03:29:36;4.35;;;1.63;;
11827;SDS011;5971;49.646;8.568;2023-03-23T03:32:38;2.58;;;1.35;;
11827;SDS011;5971;49.646;8.568;2023-03-23T03:35:41;4.03;;;2.00;;
11827;SDS011;5971;49.646;8.568;2023-03-23T03:38:43;3.15;;;1.40;;
11827;SDS011;5971;49.646;8.568;2023-03-23T03:41:43;2.28;;;1.42;;
11827;SDS011;5971;49.646;8.568;2023-03-23T03:44:43;2.67;;;1.42;;
11827;SDS011;5971;49.646;8.568;2023-03-23T03:47:44;2.80;;;1.35;;
11827;SDS011;5971;49.646;8.568;2023-03-23T03:50:44;2.42;;;1.88;;
11827;SDS011;5971;49.646;8.568;2023-03-23T03:53:45;5.07;;;1.30;;
11827;SDS011;5971;49.646;8.568;2023-03-23T03:56:46;2.22;;;1.33;;
11827;SDS011;5971;49.646;8.568;2023-03-23T03:59:46;2.90;;;1.70;;
11827;SDS011;5971;49.646;8.568;2023-03-23T04:02:48;2.17;;;1.48;;
11827;SDS011;5971;49.646;8.568;2023-03-23T04:05:50;2.80;;;1.20;;
11827;SDS011;5971;49.646;8.568;2023-03-23T04:08:51;2.00;;;1.20;;
11827;SDS011;5971;49.646;8.568;2023-03-23T04:11:51;2.55;;;1.33;;
11827;SDS011;5971;49.646;8.568;2023-03-23T04:14:51;4.30;;;1.77;;
11827;SDS011;5971;49.646;8.568;2023-03-23T04:17:52;4.47;;;2.17;;
11827;SDS011;5971;49.646;8.568;2023-03-23T04:20:52;3.45;;;1.42;;
11827;SDS011;5971;49.646;8.568;2023-03-23T04:23:52;3.23;;;2.00;;
11827;SDS011;5971;49.646;8.568;2023-03-23T04:26:53;3.33;;;1.60;;
11827;SDS011;5971;49.646;8.568;2023-03-23T04:29:55;2.83;;;1.65;;
11827;SDS011;5971;49.646;8.568;2023-03-23T04:32:56;2.70;;;1.50;;
11827;SDS011;5971;49.646;8.568;2023-03-23T04:35:58;3.50;;;1.58;;
11827;SDS011;5971;49.646;8.568;2023-03-23T04:39:00;2.88;;;1.25;;
11827;SDS011;5971;49.646;8.568;2023-03-23T04:42:02;2.83;;;1.35;;
11827;SDS011;5971;49.646;8.568;2023-03-23T04:45:04;5.15;;;1.45;;
11827;SDS011;5971;49.646;8.568;2023-03-23T04:48:06;2.20;;;1.20;;
11827;SDS011;5971;49.646;8.568;2023-03-23T04:51:06;4.57;;;1.13;;
11827;SDS011;5971;49.646;8.568;2023-03-23T04:54:06;3.00;;;1.20;;
11827;SDS011;5971;49.646;8.568;2023-03-23T04:57:07;2.83;;;1.33;;
11827;SDS011;5971;49.646;8.568;2023-03-23T05:00:08;1.73;;;1.20;;
11827;SDS011;5971;49.646;8.568;2023-03-23T05:03:12;4.72;;;1.35;;
11827;SDS011;5971;49.646;8.568;2023-03-23T05:06:16;2.25;;;1.30;;
11827;SDS011;5971;49.646;8.568;2023-03-23T05:09:16;2.38;;;1.50;;
11827;SDS011;5971;49.646;8.568;2023-03-23T05:12:17;2.10;;;1.13;;
11827;SDS011;5971;49.646;8.568;2023-03-23T05:15:17;3.20;;;2.47;;
11827;SDS011;5971;49.646;8.568;2023-03-23T05:18:17;3.22;;;1.33;;
11827;SDS011;5971;49.646;8.568;2023-03-23T05:21:20;1.90;;;1.13;;
11827;SDS011;5971;49.646;8.568;2023-03-23T05:24:21;3.30;;;1.63;;
11827;SDS011;5971;49.646;8.568;2023-03-23T05:27:21;3.30;;;1.20;;
11827;SDS011;5971;49.646;8.568;2023-03-23T05:30:21;3.17;;;1.93;;
11827;SDS011;5971;49.646;8.568;2023-03-23T05:33:21;3.65;;;1.85;;
11827;SDS011;5971;49.646;8.568;2023-03-23T05:36:22;2.33;;;1.33;;
11827;SDS011;5971;49.646;8.568;2023-03-23T05:39:22;2.60;;;1.48;;
11827;SDS011;5971;49.646;8.568;2023-03-23T05:42:23;1.57;;;0.90;;
11827;SDS011;5971;49.646;8.568;2023-03-23T05:45:24;2.72;;;1.15;;
11827;SDS011;5971;49.646;8.568;2023-03-23T05:48:24;1.25;;;0.90;;
11827;SDS011;5971;49.646;8.568;2023-03-23T05:51:25;1.93;;;1.10;;
11827;SDS011;5971;49.646;8.568;2023-03-23T05:54:25;2.57;;;1.13;;
11827;SDS011;5971;49.646;8.568;2023-03-23T05:57:25;1.80;;;1.08;;
11827;SDS011;5971;49.646;8.568;2023-03-23T06:00:26;2.30;;;1.17;;
11827;SDS011;5971;49.646;8.568;2023-03-23T06:03:30;1.65;;;0.80;;
11827;SDS011;5971;49.646;8.568;2023-03-23T06:06:30;2.50;;;1.00;;
11827;SDS011;5971;49.646;8.568;2023-03-23T06:09:32;2.00;;;1.10;;
11827;SDS011;5971;49.646;8.568;2023-03-23T06:12:32;2.40;;;1.30;;
11827;SDS011;5971;49.646;8.568;2023-03-23T06:15:32;2.00;;;1.15;;
11827;SDS011;5971;49.646;8.568;2023-03-23T06:18:33;1.48;;;0.90;;
11827;SDS011;5971;49.646;8.568;2023-03-23T06:21:33;1.92;;;1.08;;
11827;SDS011;5971;49.646;8.568;2023-03-23T06:24:34;2.50;;;1.17;;
11827;SDS011;5971;49.646;8.568;2023-03-23T06:27:34;1.67;;;0.98;;
11827;SDS011;5971;49.646;8.568;2023-03-23T06:30:35;2.17;;;1.02;;
11827;SDS011;5971;49.646;8.568;2023-03-23T06:33:36;2.47;;;1.13;;
11827;SDS011;5971;49.646;8.568;2023-03-23T06:36:37;1.65;;;0.90;;
11827;SDS011;5971;49.646;8.568;2023-03-23T06:39:38;1.35;;;1.08;;
11827;SDS011;5971;49.646;8.568;2023-03-23T06:42:38;1.87;;;1.00;;
11827;SDS011;5971;49.646;8.568;2023-03-23T06:45:38;2.30;;;1.23;;
11827;SDS011;5971;49.646;8.568;2023-03-23T06:48:39;2.80;;;1.10;;
11827;SDS011;5971;49.646;8.568;2023-03-23T06:51:39;1.35;;;1.15;;
11827;SDS011;5971;49.646;8.568;2023-03-23T06:54:40;3.22;;;1.08;;
11827;SDS011;5971;49.646;8.568;2023-03-23T06:57:40;1.50;;;0.90;;
11827;SDS011;5971;49.646;8.568;2023-03-23T07:00:41;1.60;;;0.95;;
11827;SDS011;5971;49.646;8.568;2023-03-23T07:03:41;1.85;;;1.23;;
11827;SDS011;5971;49.646;8.568;2023-03-23T07:06:42;2.58;;;1.05;;
11827;SDS011;5971;49.646;8.568;2023-03-23T07:09:42;1.90;;;1.20;;
11827;SDS011;5971;49.646;8.568;2023-03-23T07:12:43;1.98;;;1.13;;
11827;SDS011;5971;49.646;8.568;2023-03-23T07:15:43;1.52;;;1.10;;
11827;SDS011;5971;49.646;8.568;2023-03-23T07:18:44;3.58;;;1.30;;
11827;SDS011;5971;49.646;8.568;2023-03-23T07:21:44;2.25;;;1.10;;
11827;SDS011;5971;49.646;8.568;2023-03-23T07:24:45;2.13;;;1.02;;
11827;SDS011;5971;49.646;8.568;2023-03-23T07:27:45;1.05;;;0.80;;
11827;SDS011;5971;49.646;8.568;2023-03-23T07:30:46;4.22;;;1.30;;
11827;SDS011;5971;49.646;8.568;2023-03-23T07:33:46;1.95;;;1.05;;
11827;SDS011;5971;49.646;8.568;2023-03-23T07:36:47;2.30;;;2.10;;
11827;SDS011;5971;49.646;8.568;2023-03-23T07:39:47;1.83;;;1.10;;
11827;SDS011;5971;49.646;8.568;2023-03-23T07:42:51;2.47;;;1.30;;
11827;SDS011;5971;49.646;8.568;2023-03-23T07:45:52;2.45;;;1.60;;
11827;SDS011;5971;49.646;8.568;2023-03-23T07:48:52;1.50;;;0.80;;
11827;SDS011;5971;49.646;8.568;2023-03-23T07:51:53;1.50;;;0.95;;
11827;SDS011;5971;49.646;8.568;2023-03-23T07:54:53;1.88;;;1.00;;
11827;SDS011;5971;49.646;8.568;2023-03-23T07:57:54;1.77;;;1.48;;
11827;SDS011;5971;49.646;8.568;2023-03-23T08:00:54;1.50;;;0.95;;
11827;SDS011;5971;49.646;8.568;2023-03-23T08:03:57;2.40;;;1.67;;
11827;SDS011;5971;49.646;8.568;2023-03-23T08:06:57;1.48;;;0.75;;
11827;SDS011;5971;49.646;8.568;2023-03-23T08:09:58;1.47;;;0.93;;
11827;SDS011;5971;49.646;8.568;2023-03-23T08:12:58;2.05;;;0.98;;
11827;SDS011;5971;49.646;8.568;2023-03-23T08:15:59;1.80;;;1.00;;
11827;SDS011;5971;49.646;8.568;2023-03-23T08:19:03;1.50;;;0.93;;
11827;SDS011;5971;49.646;8.568;2023-03-23T08:22:05;2.85;;;1.45;;
11827;SDS011;5971;49.646;8.568;2023-03-23T08:25:06;1.15;;;0.80;;
11827;SDS011;5971;49.646;8.568;2023-03-23T08:28:06;1.67;;;0.80;;
11827;SDS011;5971;49.646;8.568;2023-03-23T08:31:07;1.87;;;0.93;;
11827;SDS011;5971;49.646;8.568;2023-03-23T08:34:07;1.60;;;0.98;;
11827;SDS011;5971;49.646;8.568;2023-03-23T08:37:08;2.33;;;1.83;;
11827;SDS011;5971;49.646;8.568;2023-03-23T08:40:10;1.25;;;0.85;;
11827;SDS011;5971;49.646;8.568;2023-03-23T08:43:10;1.52;;;0.93;;
11827;SDS011;5971;49.646;8.568;2023-03-23T08:46:10;2.25;;;1.05;;
11827;SDS011;5971;49.646;8.568;2023-03-23T08:49:11;2.40;;;1.23;;
11827;SDS011;5971;49.646;8.568;2023-03-23T08:52:11;1.52;;;1.15;;
11827;SDS011;5971;49.646;8.568;2023-03-23T08:55:11;1.75;;;0.98;;
11827;SDS011;5971;49.646;8.568;2023-03-23T08:58:12;1.85;;;0.95;;
11827;SDS011;5971;49.646;8.568;2023-03-23T09:01:12;1.60;;;0.90;;
11827;SDS011;5971;49.646;8.568;2023-03-23T09:04:13;2.45;;;1.02;;
11827;SDS011;5971;49.646;8.568;2023-03-23T09:07:14;1.90;;;1.20;;
11827;SDS011;5971;49.646;8.568;2023-03-23T09:10:15;1.40;;;0.98;;
11827;SDS011;5971;49.646;8.568;2023-03-23T09:13:15;2.53;;;1.13;;
11827;SDS011;5971;49.646;8.568;2023-03-23T09:16:15;1.77;;;1.10;;
11827;SDS011;5971;49.646;8.568;2023-03-23T09:19:16;1.63;;;1.03;;
11827;SDS011;5971;49.646;8.568;2023-03-23T09:22:16;2.40;;;0.93;;
11827;SDS011;5971;49.646;8.568;2023-03-23T09:25:21;1.33;;;0.95;;
11827;SDS011;5971;49.646;8.568;2023-03-23T09:28:21;2.88;;;1.27;;
11827;SDS011;5971;49.646;8.568;2023-03-23T09:31:22;1.73;;;1.02;;
11827;SDS011;5971;49.646;8.568;2023-03-23T09:34:22;2.13;;;0.93;;
11827;SDS011;5971;49.646;8.568;2023-03-23T09:37:22;1.13;;;1.00;;
11827;SDS011;5971;49.646;8.568;2023-03-23T09:40:23;1.30;;;1.08;;
11827;SDS011;5971;49.646;8.568;2023-03-23T09:52:57;1.40;;;0.95;;
11827;SDS011;5971;49.646;8.568;2023-03-23T09:55:58;0.98;;;0.70;;
11827;SDS011;5971;49.646;8.568;2023-03-23T09:59:00;1.70;;;0.65;;
11827;SDS011;5971;49.646;8.568;2023-03-23T10:05:32;1.25;;;0.82;;
11827;SDS011;5971;49.646;8.568;2023-03-23T10:08:33;1.42;;;0.80;;
11827;SDS011;5971;49.646;8.568;2023-03-23T10:17:45;1.77;;;0.95;;
11827;SDS011;5971;49.646;8.568;2023-03-23T10:21:06;1.58;;;1.45;;
11827;SDS011;5971;49.646;8.568;2023-03-23T10:24:13;1.65;;;0.82;;
11827;SDS011;5971;49.646;8.568;2023-03-23T10:30:27;2.15;;;1.95;;
11827;SDS011;5971;49.646;8.568;2023-03-23T10:33:34;1.88;;;1.55;;
11827;SDS011;5971;49.646;8.568;2023-03-23T10:36:36;1.98;;;1.00;;
11827;SDS011;5971;49.646;8.568;2023-03-23T10:43:10;2.03;;;1.50;;
11827;SDS011;5971;49.646;8.568;2023-03-23T10:46:17;1.55;;;0.90;;
11827;SDS011;5971;49.646;8.568;2023-03-23T10:49:21;1.80;;;1.52;;
11827;SDS011;5971;49.646;8.568;2023-03-23T10:52:25;2.17;;;1.40;;
11827;SDS011;5971;49.646;8.568;2023-03-23T10:55:39;2.40;;;1.80;;
11827;SDS011;5971;49.646;8.568;2023-03-23T10:58:40;3.65;;;1.98;;
11827;SDS011;5971;49.646;8.568;2023-03-23T11:01:42;1.83;;;1.10;;
11827;SDS011;5971;49.646;8.568;2023-03-23T11:04:53;1.60;;;0.93;;
11827;SDS011;5971;49.646;8.568;2023-03-23T11:07:55;4.57;;;1.35;;
11827;SDS011;5971;49.646;8.568;2023-03-23T11:10:58;3.05;;;1.63;;
11827;SDS011;5971;49.646;8.568;2023-03-23T11:13:59;1.55;;;0.98;;
11827;SDS011;5971;49.646;8.568;2023-03-23T11:17:02;1.83;;;1.50;;
11827;SDS011;5971;49.646;8.568;2023-03-23T11:20:09;1.83;;;1.35;;
11827;SDS011;5971;49.646;8.568;2023-03-23T11:23:10;1.55;;;1.00;;
11827;SDS011;5971;49.646;8.568;2023-03-23T11:29:19;1.45;;;1.00;;
11827;SDS011;5971;49.646;8.568;2023-03-23T11:32:27;2.03;;;1.05;;
11827;SDS011;5971;49.646;8.568;2023-03-23T11:35:28;1.70;;;1.17;;
11827;SDS011;5971;49.646;8.568;2023-03-23T11:38:29;1.70;;;1.55;;
11827;SDS011;5971;49.646;8.568;2023-03-23T11:41:31;0.85;;;0.68;;
11827;SDS011;5971;49.646;8.568;2023-03-23T11:44:33;1.52;;;0.90;;
11827;SDS011;5971;49.646;8.568;2023-03-23T11:47:37;1.55;;;1.00;;
11827;SDS011;5971;49.646;8.568;2023-03-23T11:56:55;2.55;;;1.15;;
11827;SDS011;5971;49.646;8.568;2023-03-23T11:59:56;2.47;;;0.95;;
11827;SDS011;5971;49.646;8.568;2023-03-23T12:03:05;2.20;;;1.02;;
11827;SDS011;5971;49.646;8.568;2023-03-23T12:06:13;2.58;;;1.77;;
11827;SDS011;5971;49.646;8.568;2023-03-23T12:15:33;1.30;;;0.82;;
11827;SDS011;5971;49.646;8.568;2023-03-23T12:18:40;1.42;;;0.82;;
11827;SDS011;5971;49.646;8.568;2023-03-23T12:31:10;2.15;;;1.95;;
11827;SDS011;5971;49.646;8.568;2023-03-23T12:34:18;1.00;;;0.70;;
11827;SDS011;5971;49.646;8.568;2023-03-23T12:43:50;0.82;;;0.73;;
11827;SDS011;5971;49.646;8.568;2023-03-23T12:49:54;1.52;;;1.05;;
11827;SDS011;5971;49.646;8.568;2023-03-23T12:52:57;1.70;;;0.80;;
11827;SDS011;5971;49.646;8.568;2023-03-23T12:56:12;0.77;;;0.65;;
11827;SDS011;5971;49.646;8.568;2023-03-23T12:59:34;2.05;;;1.73;;
11827;SDS011;5971;49.646;8.568;2023-03-23T13:03:01;1.85;;;1.55;;
11827;SDS011;5971;49.646;8.568;2023-03-23T13:06:04;1.17;;;0.80;;
11827;SDS011;5971;49.646;8.568;2023-03-23T13:12:18;1.25;;;0.80;;
11827;SDS011;5971;49.646;8.568;2023-03-23T13:15:23;1.38;;;0.88;;
11827;SDS011;5971;49.646;8.568;2023-03-23T13:18:40;1.58;;;1.02;;
11827;SDS011;5971;49.646;8.568;2023-03-23T13:21:58;1.98;;;1.77;;
11827;SDS011;5971;49.646;8.568;2023-03-23T13:25:02;2.10;;;1.52;;
11827;SDS011;5971;49.646;8.568;2023-03-23T13:28:12;1.33;;;0.80;;
11827;SDS011;5971;49.646;8.568;2023-03-23T13:31:15;1.90;;;1.52;;
11827;SDS011;5971;49.646;8.568;2023-03-23T13:34:23;1.20;;;0.82;;
11827;SDS011;5971;49.646;8.568;2023-03-23T13:37:25;1.58;;;1.13;;
11827;SDS011;5971;49.646;8.568;2023-03-23T13:40:27;1.60;;;1.00;;
11827;SDS011;5971;49.646;8.568;2023-03-23T13:43:32;2.05;;;0.88;;
11827;SDS011;5971;49.646;8.568;2023-03-23T13:46:33;1.85;;;1.02;;
11827;SDS011;5971;49.646;8.568;2023-03-23T13:49:44;1.23;;;0.82;;
11827;SDS011;5971;49.646;8.568;2023-03-23T13:55:49;1.10;;;0.80;;
11827;SDS011;5971;49.646;8.568;2023-03-23T13:58:51;1.35;;;0.68;;
11827;SDS011;5971;49.646;8.568;2023-03-23T14:08:21;1.30;;;1.00;;
11827;SDS011;5971;49.646;8.568;2023-03-23T14:11:23;1.85;;;1.10;;
11827;SDS011;5971;49.646;8.568;2023-03-23T14:14:31;1.85;;;1.48;;
11827;SDS011;5971;49.646;8.568;2023-03-23T14:17:39;0.88;;;0.68;;
11827;SDS011;5971;49.646;8.568;2023-03-23T14:20:40;1.85;;;1.20;;
11827;SDS011;5971;49.646;8.568;2023-03-23T14:23:41;1.60;;;1.13;;
11827;SDS011;5971;49.646;8.568;2023-03-23T14:26:41;2.00;;;1.38;;
11827;SDS011;5971;49.646;8.568;2023-03-23T14:29:43;2.30;;;1.90;;
11827;SDS011;5971;49.646;8.568;2023-03-23T14:32:43;1.83;;;1.50;;
11827;SDS011;5971;49.646;8.568;2023-03-23T14:35:44;0.88;;;0.73;;
11827;SDS011;5971;49.646;8.568;2023-03-23T14:38:46;1.92;;;1.27;;
11827;SDS011;5971;49.646;8.568;2023-03-23T14:41:46;1.63;;;1.25;;
11827;SDS011;5971;49.646;8.568;2023-03-23T14:44:47;2.60;;;1.67;;
11827;SDS011;5971;49.646;8.568;2023-03-23T14:47:52;1.42;;;0.90;;
11827;SDS011;5971;49.646;8.568;2023-03-23T14:50:57;2.03;;;0.88;;
11827;SDS011;5971;49.646;8.568;2023-03-23T14:53:58;2.15;;;1.63;;
11827;SDS011;5971;49.646;8.568;2023-03-23T14:57:02;2.13;;;1.45;;
11827;SDS011;5971;49.646;8.568;2023-03-23T15:00:03;1.85;;;1.02;;
11827;SDS011;5971;49.646;8.568;2023-03-23T15:03:04;1.63;;;0.93;;
11827;SDS011;5971;49.646;8.568;2023-03-23T15:06:08;1.90;;;0.90;;
11827;SDS011;5971;49.646;8.568;2023-03-23T15:09:11;1.23;;;0.85;;
11827;SDS011;5971;49.646;8.568;2023-03-23T15:12:19;1.10;;;0.82;;
11827;SDS011;5971;49.646;8.568;2023-03-23T15:15:22;1.40;;;1.08;;
11827;SDS011;5971;49.646;8.568;2023-03-23T15:18:58;1.42;;;0.80;;
11827;SDS011;5971;49.646;8.568;2023-03-23T15:21:55;1.30;;;0.82;;
11827;SDS011;5971;49.646;8.568;2023-03-23T15:25:30;1.17;;;0.73;;
11827;SDS011;5971;49.646;8.568;2023-03-23T15:28:28;1.15;;;0.70;;
11827;SDS011;5971;49.646;8.568;2023-03-23T15:31:29;3.58;;;0.90;;
11827;SDS011;5971;49.646;8.568;2023-03-23T15:37:31;2.15;;;1.60;;
11827;SDS011;5971;49.646;8.568;2023-03-23T15:40:32;0.82;;;0.70;;
11827;SDS011;5971;49.646;8.568;2023-03-23T15:43:34;2.13;;;1.25;;
11827;SDS011;5971;49.646;8.568;2023-03-23T15:46:35;1.23;;;1.05;;
11827;SDS011;5971;49.646;8.568;2023-03-23T15:49:35;1.60;;;0.90;;
11827;SDS011;5971;49.646;8.568;2023-03-23T15:52:35;3.40;;;1.02;;
11827;SDS011;5971;49.646;8.568;2023-03-23T15:55:36;2.35;;;1.60;;
11827;SDS011;5971;49.646;8.568;2023-03-23T15:58:37;2.17;;;1.38;;
11827;SDS011;5971;49.646;8.568;2023-03-23T16:01:40;0.93;;;0.73;;
11827;SDS011;5971;49.646;8.568;2023-03-23T16:04:43;1.65;;;0.90;;
11827;SDS011;5971;49.646;8.568;2023-03-23T16:07:48;1.58;;;1.10;;
11827;SDS011;5971;49.646;8.568;2023-03-23T16:10:50;2.08;;;1.60;;
11827;SDS011;5971;49.646;8.568;2023-03-23T16:13:51;1.45;;;0.93;;
11827;SDS011;5971;49.646;8.568;2023-03-23T16:16:53;1.90;;;0.93;;
11827;SDS011;5971;49.646;8.568;2023-03-23T16:19:54;1.77;;;1.13;;
11827;SDS011;5971;49.646;8.568;2023-03-23T16:22:56;2.60;;;1.63;;
11827;SDS011;5971;49.646;8.568;2023-03-23T16:25:57;1.48;;;0.98;;
11827;SDS011;5971;49.646;8.568;2023-03-23T16:28:59;2.50;;;1.45;;
11827;SDS011;5971;49.646;8.568;2023-03-23T16:32:17;1.30;;;0.80;;
11827;SDS011;5971;49.646;8.568;2023-03-23T16:35:19;1.48;;;1.00;;
11827;SDS011;5971;49.646;8.568;2023-03-23T16:38:20;2.28;;;1.90;;
11827;SDS011;5971;49.646;8.568;2023-03-23T16:41:22;2.25;;;1.27;;
11827;SDS011;5971;49.646;8.568;2023-03-23T16:44:23;2.03;;;1.08;;
11827;SDS011;5971;49.646;8.568;2023-03-23T16:47:24;1.77;;;1.17;;
11827;SDS011;5971;49.646;8.568;2023-03-23T16:50:26;2.60;;;1.27;;
11827;SDS011;5971;49.646;8.568;2023-03-23T16:53:28;1.90;;;1.63;;
11827;SDS011;5971;49.646;8.568;2023-03-23T16:56:29;1.98;;;1.08;;
11827;SDS011;5971;49.646;8.568;2023-03-23T16:59:31;1.85;;;1.10;;
11827;SDS011;5971;49.646;8.568;2023-03-23T17:02:32;2.53;;;1.10;;
11827;SDS011;5971;49.646;8.568;2023-03-23T17:05:34;2.20;;;1.50;;
11827;SDS011;5971;49.646;8.568;2023-03-23T17:08:35;2.13;;;1.30;;
11827;SDS011;5971;49.646;8.568;2023-03-23T17:11:37;2.47;;;1.17;;
11827;SDS011;5971;49.646;8.568;2023-03-23T17:14:38;2.30;;;1.23;;
11827;SDS011;5971;49.646;8.568;2023-03-23T17:17:39;3.00;;;2.00;;
11827;SDS011;5971;49.646;8.568;2023-03-23T17:20:41;2.60;;;1.85;;
11827;SDS011;5971;49.646;8.568;2023-03-23T17:23:42;3.10;;;2.80;;
11827;SDS011;5971;49.646;8.568;2023-03-23T17:26:43;1.88;;;1.23;;
11827;SDS011;5971;49.646;8.568;2023-03-23T17:29:45;3.15;;;1.63;;
11827;SDS011;5971;49.646;8.568;2023-03-23T17:32:47;3.28;;;1.52;;
11827;SDS011;5971;49.646;8.568;2023-03-23T17:35:48;3.70;;;1.80;;
11827;SDS011;5971;49.646;8.568;2023-03-23T17:38:52;2.75;;;1.42;;
11827;SDS011;5971;49.646;8.568;2023-03-23T17:41:53;3.00;;;1.88;;
11827;SDS011;5971;49.646;8.568;2023-03-23T17:44:54;4.50;;;1.83;;
11827;SDS011;5971;49.646;8.568;2023-03-23T17:47:56;3.35;;;2.33;;
11827;SDS011;5971;49.646;8.568;2023-03-23T17:50:57;3.63;;;2.00;;
11827;SDS011;5971;49.646;8.568;2023-03-23T17:53:59;3.03;;;1.58;;
11827;SDS011;5971;49.646;8.568;2023-03-23T17:57:01;4.15;;;2.40;;
11827;SDS011;5971;49.646;8.568;2023-03-23T18:00:04;4.45;;;1.42;;
11827;SDS011;5971;49.646;8.568;2023-03-23T18:03:07;3.58;;;1.85;;
11827;SDS011;5971;49.646;8.568;2023-03-23T18:06:09;2.70;;;1.48;;
11827;SDS011;5971;49.646;8.568;2023-03-23T18:09:10;4.47;;;1.83;;
11827;SDS011;5971;49.646;8.568;2023-03-23T18:12:12;3.10;;;2.53;;
11827;SDS011;5971;49.646;8.568;2023-03-23T18:15:13;2.63;;;1.38;;
11827;SDS011;5971;49.646;8.568;2023-03-23T18:18:14;2.72;;;1.35;;
11827;SDS011;5971;49.646;8.568;2023-03-23T18:21:16;3.08;;;1.65;;
11827;SDS011;5971;49.646;8.568;2023-03-23T18:24:17;5.35;;;1.75;;
11827;SDS011;5971;49.646;8.568;2023-03-23T18:27:18;5.28;;;1.88;;
11827;SDS011;5971;49.646;8.568;2023-03-23T18:30:20;3.67;;;2.13;;
11827;SDS011;5971;49.646;8.568;2023-03-23T18:33:22;5.47;;;2.40;;
11827;SDS011;5971;49.646;8.568;2023-03-23T18:36:25;15.68;;;5.25;;
11827;SDS011;5971;49.646;8.568;2023-03-23T18:39:27;32.13;;;10.63;;
11827;SDS011;5971;49.646;8.568;2023-03-23T18:42:28;8.65;;;3.92;;
11827;SDS011;5971;49.646;8.568;2023-03-23T18:45:30;4.28;;;2.08;;
11827;SDS011;5971;49.646;8.568;2023-03-23T18:48:33;4.85;;;2.10;;
11827;SDS011;5971;49.646;8.568;2023-03-23T18:51:35;4.03;;;2.22;;
11827;SDS011;5971;49.646;8.568;2023-03-23T18:54:37;3.55;;;2.03;;
11827;SDS011;5971;49.646;8.568;2023-03-23T18:57:40;5.32;;;2.60;;
11827;SDS011;5971;49.646;8.568;2023-03-23T19:00:42;7.13;;;3.45;;
11827;SDS011;5971;49.646;8.568;2023-03-23T19:03:43;4.40;;;2.20;;
11827;SDS011;5971;49.646;8.568;2023-03-23T19:06:45;5.88;;;2.75;;
11827;SDS011;5971;49.646;8.568;2023-03-23T19:09:47;4.30;;;2.83;;
11827;SDS011;5971;49.646;8.568;2023-03-23T19:12:48;7.35;;;3.03;;
11827;SDS011;5971;49.646;8.568;2023-03-23T19:15:50;6.90;;;2.60;;
11827;SDS011;5971;49.646;8.568;2023-03-23T19:18:52;3.92;;;2.60;;
11827;SDS011;5971;49.646;8.568;2023-03-23T19:21:54;14.77;;;6.38;;
11827;SDS011;5971;49.646;8.568;2023-03-23T19:24:55;11.23;;;5.78;;
11827;SDS011;5971;49.646;8.568;2023-03-23T19:27:57;8.85;;;4.47;;
11827;SDS011;5971;49.646;8.568;2023-03-23T19:31:18;8.73;;;4.72;;
11827;SDS011;5971;49.646;8.568;2023-03-23T19:37:24;7.53;;;4.25;;
11827;SDS011;5971;49.646;8.568;2023-03-23T19:40:25;6.40;;;3.17;;
11827;SDS011;5971;49.646;8.568;2023-03-23T19:43:47;5.45;;;3.05;;
11827;SDS011;5971;49.646;8.568;2023-03-23T19:46:48;9.52;;;4.82;;
11827;SDS011;5971;49.646;8.568;2023-03-23T19:49:50;5.55;;;2.97;;
11827;SDS011;5971;49.646;8.568;2023-03-23T19:52:51;4.68;;;2.25;;
11827;SDS011;5971;49.646;8.568;2023-03-23T19:55:53;5.95;;;3.20;;
11827;SDS011;5971;49.646;8.568;2023-03-23T19:58:54;8.02;;;4.53;;
11827;SDS011;5971;49.646;8.568;2023-03-23T20:01:55;6.40;;;3.88;;
11827;SDS011;5971;49.646;8.568;2023-03-23T20:04:57;6.30;;;3.67;;
11827;SDS011;5971;49.646;8.568;2023-03-23T20:07:59;7.00;;;2.95;;
11827;SDS011;5971;49.646;8.568;2023-03-23T20:11:01;6.15;;;2.90;;
11827;SDS011;5971;49.646;8.568;2023-03-23T20:14:03;5.50;;;2.92;;